Ellsworth, Iowa
Current Conditions -  °F | °C
As of 7:35 PM on Thursday 27 Nov 2014 (Local Time) from KEBS Reporting Station
Overcast Overcast  
Wind Chill: -6°   Ceiling: 2800
Heat Index:   Visibility: 10mi
Dew Point:   Wind: 10mph
Humidity: 73%   Direction: 140°SE
Pressure: 30.33"   Gusts: NA
Location:  42.31°N, 93.58°W
Report Text: KEBS 280135Z AUTO 14009KT 10SM BKN028 OVC039 M13/M17 A3033 RMK AO2
Loading
Personal Weather Stations






























Interactive Weather Map New forecast layout! Learn more

10-Day Weather Forecast

Advertisements
Track Severe Weather on mobile